sensor_id;sensor_type;location;lat;lon;timestamp;temperature;humidity
9125;DHT22;4597;48.730;9.114;2022-12-18T00:01:33;-9.00;99.90
9125;DHT22;4597;48.730;9.114;2022-12-18T00:04:00;-9.10;99.90
9125;DHT22;4597;48.730;9.114;2022-12-18T00:06:28;-9.00;99.90
9125;DHT22;4597;48.730;9.114;2022-12-18T00:08:55;-9.10;99.90
9125;DHT22;4597;48.730;9.114;2022-12-18T00:11:24;-9.10;99.90
9125;DHT22;4597;48.730;9.114;2022-12-18T00:13:51;-9.00;99.90
9125;DHT22;4597;48.730;9.114;2022-12-18T00:16:20;-9.00;99.90
9125;DHT22;4597;48.730;9.114;2022-12-18T00:18:47;-9.00;99.90
9125;DHT22;4597;48.730;9.114;2022-12-18T00:21:14;-9.00;99.90
9125;DHT22;4597;48.730;9.114;2022-12-18T00:23:42;-9.00;99.90
9125;DHT22;4597;48.730;9.114;2022-12-18T00:26:12;-9.10;99.90
9125;DHT22;4597;48.730;9.114;2022-12-18T00:28:38;-9.10;99.90
9125;DHT22;4597;48.730;9.114;2022-12-18T00:31:05;-9.20;99.90
9125;DHT22;4597;48.730;9.114;2022-12-18T00:33:31;-9.10;99.90
9125;DHT22;4597;48.730;9.114;2022-12-18T00:36:04;-9.10;99.90
9125;DHT22;4597;48.730;9.114;2022-12-18T00:38:30;-9.10;99.90
9125;DHT22;4597;48.730;9.114;2022-12-18T00:40:56;-9.10;99.90
9125;DHT22;4597;48.730;9.114;2022-12-18T00:43:21;-9.10;99.90
9125;DHT22;4597;48.730;9.114;2022-12-18T00:45:47;-9.10;99.90
9125;DHT22;4597;48.730;9.114;2022-12-18T00:48:12;-9.10;99.90
9125;DHT22;4597;48.730;9.114;2022-12-18T00:50:38;-9.20;99.90
9125;DHT22;4597;48.730;9.114;2022-12-18T00:53:03;-9.20;99.90
9125;DHT22;4597;48.730;9.114;2022-12-18T00:55:29;-9.20;99.90
9125;DHT22;4597;48.730;9.114;2022-12-18T00:57:55;-9.20;99.90
9125;DHT22;4597;48.730;9.114;2022-12-18T01:00:21;-9.20;99.90
9125;DHT22;4597;48.730;9.114;2022-12-18T01:02:47;-9.30;99.90
9125;DHT22;4597;48.730;9.114;2022-12-18T01:05:13;-9.40;99.90
9125;DHT22;4597;48.730;9.114;2022-12-18T01:07:39;-9.40;99.90
9125;DHT22;4597;48.730;9.114;2022-12-18T01:10:06;-9.40;99.90
9125;DHT22;4597;48.730;9.114;2022-12-18T01:12:33;-9.40;99.90
9125;DHT22;4597;48.730;9.114;2022-12-18T01:14:58;-9.40;99.90
9125;DHT22;4597;48.730;9.114;2022-12-18T01:17:24;-9.50;99.90
9125;DHT22;4597;48.730;9.114;2022-12-18T01:19:49;-9.40;99.90
9125;DHT22;4597;48.730;9.114;2022-12-18T01:22:15;-9.40;99.90
9125;DHT22;4597;48.730;9.114;2022-12-18T01:24:41;-9.40;99.90
9125;DHT22;4597;48.730;9.114;2022-12-18T01:27:06;-9.40;99.90
9125;DHT22;4597;48.730;9.114;2022-12-18T01:29:32;-9.30;99.90
9125;DHT22;4597;48.730;9.114;2022-12-18T01:31:57;-9.30;99.90
9125;DHT22;4597;48.730;9.114;2022-12-18T01:34:23;-9.30;99.90
9125;DHT22;4597;48.730;9.114;2022-12-18T01:36:49;-9.30;99.90
9125;DHT22;4597;48.730;9.114;2022-12-18T01:39:17;-9.20;99.90
9125;DHT22;4597;48.730;9.114;2022-12-18T01:41:43;-9.20;99.90
9125;DHT22;4597;48.730;9.114;2022-12-18T01:49:48;-9.30;99.90
9125;DHT22;4597;48.730;9.114;2022-12-18T01:52:14;-9.20;99.90
9125;DHT22;4597;48.730;9.114;2022-12-18T01:54:40;-9.20;99.90
9125;DHT22;4597;48.730;9.114;2022-12-18T01:57:06;-9.20;99.90
9125;DHT22;4597;48.730;9.114;2022-12-18T01:59:33;-9.20;99.90
9125;DHT22;4597;48.730;9.114;2022-12-18T02:01:59;-9.20;99.90
9125;DHT22;4597;48.730;9.114;2022-12-18T02:04:26;-9.20;99.90
9125;DHT22;4597;48.730;9.114;2022-12-18T02:07:20;-9.20;99.90
9125;DHT22;4597;48.730;9.114;2022-12-18T02:09:56;-9.30;99.90
9125;DHT22;4597;48.730;9.114;2022-12-18T02:12:27;-9.30;99.90
9125;DHT22;4597;48.730;9.114;2022-12-18T02:18:01;-9.30;99.90
9125;DHT22;4597;48.730;9.114;2022-12-18T02:20:36;-9.40;99.90
9125;DHT22;4597;48.730;9.114;2022-12-18T02:28:41;-9.40;99.90
9125;DHT22;4597;48.730;9.114;2022-12-18T02:31:13;-9.40;99.90
9125;DHT22;4597;48.730;9.114;2022-12-18T02:33:40;-9.50;99.90
9125;DHT22;4597;48.730;9.114;2022-12-18T02:36:07;-9.40;99.90
9125;DHT22;4597;48.730;9.114;2022-12-18T02:38:34;-9.50;99.90
9125;DHT22;4597;48.730;9.114;2022-12-18T02:41:00;-9.50;99.90
9125;DHT22;4597;48.730;9.114;2022-12-18T02:43:27;-9.50;99.90
9125;DHT22;4597;48.730;9.114;2022-12-18T02:45:57;-9.50;99.90
9125;DHT22;4597;48.730;9.114;2022-12-18T02:48:30;-9.40;99.90
9125;DHT22;4597;48.730;9.114;2022-12-18T02:51:06;-9.40;99.90
9125;DHT22;4597;48.730;9.114;2022-12-18T02:53:45;-9.40;99.90
9125;DHT22;4597;48.730;9.114;2022-12-18T02:56:31;-9.40;99.90
9125;DHT22;4597;48.730;9.114;2022-12-18T02:59:13;-9.40;99.90
9125;DHT22;4597;48.730;9.114;2022-12-18T03:04:33;-9.40;99.90
9125;DHT22;4597;48.730;9.114;2022-12-18T03:07:03;-9.40;99.90
9125;DHT22;4597;48.730;9.114;2022-12-18T03:09:35;-9.30;99.90
9125;DHT22;4597;48.730;9.114;2022-12-18T03:12:11;-9.40;99.90
9125;DHT22;4597;48.730;9.114;2022-12-18T03:15:01;-9.40;99.90
9125;DHT22;4597;48.730;9.114;2022-12-18T03:17:31;-9.40;99.90
9125;DHT22;4597;48.730;9.114;2022-12-18T03:20:00;-9.40;99.90
9125;DHT22;4597;48.730;9.114;2022-12-18T03:22:30;-9.50;99.90
9125;DHT22;4597;48.730;9.114;2022-12-18T03:25:00;-9.50;99.90
9125;DHT22;4597;48.730;9.114;2022-12-18T03:27:27;-9.50;99.90
9125;DHT22;4597;48.730;9.114;2022-12-18T03:30:03;-9.50;99.90
9125;DHT22;4597;48.730;9.114;2022-12-18T03:32:38;-9.40;99.90
9125;DHT22;4597;48.730;9.114;2022-12-18T03:35:06;-9.40;99.90
9125;DHT22;4597;48.730;9.114;2022-12-18T03:37:33;-9.40;99.90
9125;DHT22;4597;48.730;9.114;2022-12-18T03:39:59;-9.40;99.90
9125;DHT22;4597;48.730;9.114;2022-12-18T03:42:40;-9.40;99.90
9125;DHT22;4597;48.730;9.114;2022-12-18T03:45:11;-9.40;99.90
9125;DHT22;4597;48.730;9.114;2022-12-18T03:48:04;-9.40;99.90
9125;DHT22;4597;48.730;9.114;2022-12-18T03:50:47;-9.40;99.90
9125;DHT22;4597;48.730;9.114;2022-12-18T03:53:47;-9.50;99.90
9125;DHT22;4597;48.730;9.114;2022-12-18T03:56:16;-9.50;99.90
9125;DHT22;4597;48.730;9.114;2022-12-18T03:58:43;-9.50;99.90
9125;DHT22;4597;48.730;9.114;2022-12-18T04:01:12;-9.50;99.90
9125;DHT22;4597;48.730;9.114;2022-12-18T04:03:39;-9.50;99.90
9125;DHT22;4597;48.730;9.114;2022-12-18T04:06:05;-9.50;99.90
9125;DHT22;4597;48.730;9.114;2022-12-18T04:08:32;-9.50;99.90
9125;DHT22;4597;48.730;9.114;2022-12-18T04:11:00;-9.50;99.90
9125;DHT22;4597;48.730;9.114;2022-12-18T04:13:36;-9.50;99.90
9125;DHT22;4597;48.730;9.114;2022-12-18T04:16:03;-9.60;99.90
9125;DHT22;4597;48.730;9.114;2022-12-18T04:18:28;-9.60;99.90
9125;DHT22;4597;48.730;9.114;2022-12-18T04:20:54;-9.60;99.90
9125;DHT22;4597;48.730;9.114;2022-12-18T04:23:19;-9.50;99.90
9125;DHT22;4597;48.730;9.114;2022-12-18T04:25:46;-9.50;99.90
9125;DHT22;4597;48.730;9.114;2022-12-18T04:28:12;-9.50;99.90
9125;DHT22;4597;48.730;9.114;2022-12-18T04:30:38;-9.50;99.90
9125;DHT22;4597;48.730;9.114;2022-12-18T04:33:03;-9.50;99.90
9125;DHT22;4597;48.730;9.114;2022-12-18T04:35:29;-9.40;99.90
9125;DHT22;4597;48.730;9.114;2022-12-18T04:37:55;-9.40;99.90
9125;DHT22;4597;48.730;9.114;2022-12-18T04:40:21;-9.30;99.90
9125;DHT22;4597;48.730;9.114;2022-12-18T04:42:46;-9.10;99.90
9125;DHT22;4597;48.730;9.114;2022-12-18T04:45:12;-9.00;99.90
9125;DHT22;4597;48.730;9.114;2022-12-18T04:47:37;-8.90;99.90
9125;DHT22;4597;48.730;9.114;2022-12-18T04:50:03;-8.80;99.90
9125;DHT22;4597;48.730;9.114;2022-12-18T04:52:28;-8.70;99.90
9125;DHT22;4597;48.730;9.114;2022-12-18T04:54:54;-8.60;99.90
9125;DHT22;4597;48.730;9.114;2022-12-18T04:57:20;-8.50;99.90
9125;DHT22;4597;48.730;9.114;2022-12-18T04:59:45;-8.40;99.90
9125;DHT22;4597;48.730;9.114;2022-12-18T05:02:11;-8.40;99.90
9125;DHT22;4597;48.730;9.114;2022-12-18T05:04:36;-8.40;99.90
9125;DHT22;4597;48.730;9.114;2022-12-18T05:07:02;-8.30;99.90
9125;DHT22;4597;48.730;9.114;2022-12-18T05:09:27;-8.30;99.90
9125;DHT22;4597;48.730;9.114;2022-12-18T05:11:53;-8.20;99.90
9125;DHT22;4597;48.730;9.114;2022-12-18T05:14:19;-8.20;99.90
9125;DHT22;4597;48.730;9.114;2022-12-18T05:16:44;-8.20;99.90
9125;DHT22;4597;48.730;9.114;2022-12-18T05:19:10;-8.10;99.90
9125;DHT22;4597;48.730;9.114;2022-12-18T05:21:36;-8.10;99.90
9125;DHT22;4597;48.730;9.114;2022-12-18T05:24:01;-8.10;99.90
9125;DHT22;4597;48.730;9.114;2022-12-18T05:26:27;-8.10;99.90
9125;DHT22;4597;48.730;9.114;2022-12-18T05:28:52;-8.10;99.90
9125;DHT22;4597;48.730;9.114;2022-12-18T05:31:18;-8.20;99.90
9125;DHT22;4597;48.730;9.114;2022-12-18T05:33:43;-8.20;99.90
9125;DHT22;4597;48.730;9.114;2022-12-18T05:36:09;-8.20;99.90
9125;DHT22;4597;48.730;9.114;2022-12-18T05:38:37;-8.10;99.90
9125;DHT22;4597;48.730;9.114;2022-12-18T05:41:03;-8.10;99.90
9125;DHT22;4597;48.730;9.114;2022-12-18T05:43:29;-8.00;99.90
9125;DHT22;4597;48.730;9.114;2022-12-18T05:45:55;-8.00;99.90
9125;DHT22;4597;48.730;9.114;2022-12-18T05:48:22;-8.00;99.90
9125;DHT22;4597;48.730;9.114;2022-12-18T05:50:49;-8.00;99.90
9125;DHT22;4597;48.730;9.114;2022-12-18T05:53:17;-8.00;99.90
9125;DHT22;4597;48.730;9.114;2022-12-18T05:55:44;-7.90;99.90
9125;DHT22;4597;48.730;9.114;2022-12-18T05:58:11;-7.90;99.90
9125;DHT22;4597;48.730;9.114;2022-12-18T06:00:39;-7.90;99.90
9125;DHT22;4597;48.730;9.114;2022-12-18T06:03:06;-7.90;99.90
9125;DHT22;4597;48.730;9.114;2022-12-18T06:05:40;-7.90;99.90
9125;DHT22;4597;48.730;9.114;2022-12-18T06:08:06;-7.90;99.90
9125;DHT22;4597;48.730;9.114;2022-12-18T06:10:31;-7.90;99.90
9125;DHT22;4597;48.730;9.114;2022-12-18T06:12:57;-7.80;99.90
9125;DHT22;4597;48.730;9.114;2022-12-18T06:15:23;-7.80;99.90
9125;DHT22;4597;48.730;9.114;2022-12-18T06:17:49;-7.80;99.90
9125;DHT22;4597;48.730;9.114;2022-12-18T06:20:14;-7.80;99.90
9125;DHT22;4597;48.730;9.114;2022-12-18T06:22:40;-7.80;99.90
9125;DHT22;4597;48.730;9.114;2022-12-18T06:25:06;-7.80;99.90
9125;DHT22;4597;48.730;9.114;2022-12-18T06:27:32;-7.80;99.90
9125;DHT22;4597;48.730;9.114;2022-12-18T06:29:59;-7.80;99.90
9125;DHT22;4597;48.730;9.114;2022-12-18T06:32:25;-7.80;99.90
9125;DHT22;4597;48.730;9.114;2022-12-18T06:34:51;-7.80;99.90
9125;DHT22;4597;48.730;9.114;2022-12-18T06:37:16;-7.80;99.90
9125;DHT22;4597;48.730;9.114;2022-12-18T06:39:42;-7.80;99.90
9125;DHT22;4597;48.730;9.114;2022-12-18T06:42:08;-7.80;99.90
9125;DHT22;4597;48.730;9.114;2022-12-18T06:44:33;-7.80;99.90
9125;DHT22;4597;48.730;9.114;2022-12-18T06:46:59;-7.90;99.90
9125;DHT22;4597;48.730;9.114;2022-12-18T06:49:24;-7.80;99.90
9125;DHT22;4597;48.730;9.114;2022-12-18T06:51:50;-7.90;99.90
9125;DHT22;4597;48.730;9.114;2022-12-18T06:54:15;-7.90;99.90
9125;DHT22;4597;48.730;9.114;2022-12-18T06:56:41;-7.80;99.90
9125;DHT22;4597;48.730;9.114;2022-12-18T06:59:06;-7.80;99.90
9125;DHT22;4597;48.730;9.114;2022-12-18T07:01:32;-7.80;99.90
9125;DHT22;4597;48.730;9.114;2022-12-18T07:03:58;-7.80;99.90
9125;DHT22;4597;48.730;9.114;2022-12-18T07:06:24;-7.80;99.90
9125;DHT22;4597;48.730;9.114;2022-12-18T07:08:51;-7.80;99.90
9125;DHT22;4597;48.730;9.114;2022-12-18T07:11:18;-7.80;99.90
9125;DHT22;4597;48.730;9.114;2022-12-18T07:13:45;-7.70;99.90
9125;DHT22;4597;48.730;9.114;2022-12-18T07:16:14;-7.80;99.90
9125;DHT22;4597;48.730;9.114;2022-12-18T07:18:40;-7.80;99.90
9125;DHT22;4597;48.730;9.114;2022-12-18T07:21:08;-7.80;99.90
9125;DHT22;4597;48.730;9.114;2022-12-18T07:23:34;-7.80;99.90
9125;DHT22;4597;48.730;9.114;2022-12-18T07:26:05;-7.80;99.90
9125;DHT22;4597;48.730;9.114;2022-12-18T07:28:32;-7.80;99.90
9125;DHT22;4597;48.730;9.114;2022-12-18T07:31:02;-7.80;99.90
9125;DHT22;4597;48.730;9.114;2022-12-18T07:33:28;-7.80;99.90
9125;DHT22;4597;48.730;9.114;2022-12-18T07:35:53;-7.80;99.90
9125;DHT22;4597;48.730;9.114;2022-12-18T07:38:19;-7.70;99.90
9125;DHT22;4597;48.730;9.114;2022-12-18T07:40:44;-7.70;99.90
9125;DHT22;4597;48.730;9.114;2022-12-18T07:43:10;-7.70;99.90
9125;DHT22;4597;48.730;9.114;2022-12-18T07:45:35;-7.70;99.90
9125;DHT22;4597;48.730;9.114;2022-12-18T07:48:01;-7.60;99.90
9125;DHT22;4597;48.730;9.114;2022-12-18T07:50:27;-7.50;99.90
9125;DHT22;4597;48.730;9.114;2022-12-18T07:52:52;-7.60;99.90
9125;DHT22;4597;48.730;9.114;2022-12-18T07:55:18;-7.50;99.90
9125;DHT22;4597;48.730;9.114;2022-12-18T07:57:43;-7.50;99.90
9125;DHT22;4597;48.730;9.114;2022-12-18T08:00:09;-7.50;99.90
9125;DHT22;4597;48.730;9.114;2022-12-18T08:02:35;-7.50;99.90
9125;DHT22;4597;48.730;9.114;2022-12-18T08:05:01;-7.50;99.90
9125;DHT22;4597;48.730;9.114;2022-12-18T08:07:26;-7.50;99.90
9125;DHT22;4597;48.730;9.114;2022-12-18T08:09:52;-7.50;99.90
9125;DHT22;4597;48.730;9.114;2022-12-18T08:12:17;-7.40;99.90
9125;DHT22;4597;48.730;9.114;2022-12-18T08:14:43;-7.40;99.90
9125;DHT22;4597;48.730;9.114;2022-12-18T08:17:08;-7.40;99.90
9125;DHT22;4597;48.730;9.114;2022-12-18T08:19:34;-7.40;99.90
9125;DHT22;4597;48.730;9.114;2022-12-18T08:21:59;-7.40;99.90
9125;DHT22;4597;48.730;9.114;2022-12-18T08:24:25;-7.30;99.90
9125;DHT22;4597;48.730;9.114;2022-12-18T08:26:51;-7.30;99.90
9125;DHT22;4597;48.730;9.114;2022-12-18T08:29:16;-7.20;99.90
9125;DHT22;4597;48.730;9.114;2022-12-18T08:31:42;-7.10;99.90
9125;DHT22;4597;48.730;9.114;2022-12-18T08:34:08;-7.10;99.90
9125;DHT22;4597;48.730;9.114;2022-12-18T08:36:33;-7.10;99.90
9125;DHT22;4597;48.730;9.114;2022-12-18T08:38:59;-7.10;99.90
9125;DHT22;4597;48.730;9.114;2022-12-18T08:41:24;-7.00;99.90
9125;DHT22;4597;48.730;9.114;2022-12-18T08:43:50;-7.00;99.90
9125;DHT22;4597;48.730;9.114;2022-12-18T08:46:37;-7.00;99.90
9125;DHT22;4597;48.730;9.114;2022-12-18T08:49:03;-6.90;99.90
9125;DHT22;4597;48.730;9.114;2022-12-18T08:51:30;-6.80;99.90
9125;DHT22;4597;48.730;9.114;2022-12-18T08:53:55;-6.70;99.90
9125;DHT22;4597;48.730;9.114;2022-12-18T08:56:21;-6.70;99.90
9125;DHT22;4597;48.730;9.114;2022-12-18T08:58:46;-6.60;99.90
9125;DHT22;4597;48.730;9.114;2022-12-18T09:01:12;-6.60;99.90
9125;DHT22;4597;48.730;9.114;2022-12-18T09:03:39;-6.60;99.90
9125;DHT22;4597;48.730;9.114;2022-12-18T09:06:05;-6.50;99.90
9125;DHT22;4597;48.730;9.114;2022-12-18T09:08:31;-6.50;99.90
9125;DHT22;4597;48.730;9.114;2022-12-18T09:10:57;-6.50;99.90
9125;DHT22;4597;48.730;9.114;2022-12-18T09:13:22;-6.40;99.90
9125;DHT22;4597;48.730;9.114;2022-12-18T09:15:52;-6.30;99.90
9125;DHT22;4597;48.730;9.114;2022-12-18T09:18:20;-6.30;99.90
9125;DHT22;4597;48.730;9.114;2022-12-18T09:20:46;-6.20;99.90
9125;DHT22;4597;48.730;9.114;2022-12-18T09:23:12;-6.10;99.90
9125;DHT22;4597;48.730;9.114;2022-12-18T09:25:38;-6.00;99.90
9125;DHT22;4597;48.730;9.114;2022-12-18T09:28:09;-6.00;99.90
9125;DHT22;4597;48.730;9.114;2022-12-18T09:30:41;-6.00;99.90
9125;DHT22;4597;48.730;9.114;2022-12-18T09:33:07;-5.90;99.90
9125;DHT22;4597;48.730;9.114;2022-12-18T09:35:36;-5.90;99.90
9125;DHT22;4597;48.730;9.114;2022-12-18T09:38:02;-5.80;99.90
9125;DHT22;4597;48.730;9.114;2022-12-18T09:40:34;-5.70;99.90
9125;DHT22;4597;48.730;9.114;2022-12-18T09:43:04;-5.60;99.90
9125;DHT22;4597;48.730;9.114;2022-12-18T09:45:42;-5.60;99.90
9125;DHT22;4597;48.730;9.114;2022-12-18T09:48:25;-5.60;99.90
9125;DHT22;4597;48.730;9.114;2022-12-18T09:50:55;-5.60;99.90
9125;DHT22;4597;48.730;9.114;2022-12-18T09:53:26;-5.50;99.90
9125;DHT22;4597;48.730;9.114;2022-12-18T09:55:53;-5.50;99.90
9125;DHT22;4597;48.730;9.114;2022-12-18T09:58:28;-5.50;99.90
9125;DHT22;4597;48.730;9.114;2022-12-18T10:00:56;-5.50;99.90
9125;DHT22;4597;48.730;9.114;2022-12-18T10:03:22;-5.40;99.90
9125;DHT22;4597;48.730;9.114;2022-12-18T10:05:54;-5.40;99.90
9125;DHT22;4597;48.730;9.114;2022-12-18T10:17:21;-5.30;99.90
9125;DHT22;4597;48.730;9.114;2022-12-18T10:19:59;-5.20;99.90
9125;DHT22;4597;48.730;9.114;2022-12-18T10:27:57;-5.00;99.90
9125;DHT22;4597;48.730;9.114;2022-12-18T10:30:24;-4.90;99.90
9125;DHT22;4597;48.730;9.114;2022-12-18T10:32:51;-4.80;99.90
9125;DHT22;4597;48.730;9.114;2022-12-18T10:35:25;-4.70;99.90
9125;DHT22;4597;48.730;9.114;2022-12-18T10:43:32;-4.40;99.90
9125;DHT22;4597;48.730;9.114;2022-12-18T10:48:30;-4.30;99.90
9125;DHT22;4597;48.730;9.114;2022-12-18T10:50:56;-4.20;99.90
9125;DHT22;4597;48.730;9.114;2022-12-18T10:53:26;-4.10;99.90
9125;DHT22;4597;48.730;9.114;2022-12-18T10:55:54;-4.10;99.90
9125;DHT22;4597;48.730;9.114;2022-12-18T10:58:29;-4.00;99.90
9125;DHT22;4597;48.730;9.114;2022-12-18T11:01:13;-4.00;99.90
9125;DHT22;4597;48.730;9.114;2022-12-18T11:04:00;-4.00;99.90
9125;DHT22;4597;48.730;9.114;2022-12-18T11:06:26;-3.90;99.90
9125;DHT22;4597;48.730;9.114;2022-12-18T11:09:04;-3.90;99.90
9125;DHT22;4597;48.730;9.114;2022-12-18T11:11:31;-3.80;99.90
9125;DHT22;4597;48.730;9.114;2022-12-18T11:14:01;-3.70;99.90
9125;DHT22;4597;48.730;9.114;2022-12-18T11:16:28;-3.60;99.90
9125;DHT22;4597;48.730;9.114;2022-12-18T11:19:13;-3.60;99.90
9125;DHT22;4597;48.730;9.114;2022-12-18T11:21:41;-3.60;99.90
9125;DHT22;4597;48.730;9.114;2022-12-18T11:24:24;-3.50;99.90
9125;DHT22;4597;48.730;9.114;2022-12-18T11:26:51;-3.40;99.90
9125;DHT22;4597;48.730;9.114;2022-12-18T11:29:22;-3.30;99.90
9125;DHT22;4597;48.730;9.114;2022-12-18T11:31:48;-3.20;99.90
9125;DHT22;4597;48.730;9.114;2022-12-18T11:34:24;-3.20;99.90
9125;DHT22;4597;48.730;9.114;2022-12-18T11:36:52;-3.00;99.90
9125;DHT22;4597;48.730;9.114;2022-12-18T11:44:58;-2.70;99.90
9125;DHT22;4597;48.730;9.114;2022-12-18T11:47:33;-2.60;99.90
9125;DHT22;4597;48.730;9.114;2022-12-18T11:50:05;-2.50;99.90
9125;DHT22;4597;48.730;9.114;2022-12-18T11:52:38;-2.40;99.90
9125;DHT22;4597;48.730;9.114;2022-12-18T11:55:11;-2.30;99.90
9125;DHT22;4597;48.730;9.114;2022-12-18T11:57:59;-2.20;99.90
9125;DHT22;4597;48.730;9.114;2022-12-18T12:00:28;-2.10;99.90
9125;DHT22;4597;48.730;9.114;2022-12-18T12:03:21;-2.00;99.90
9125;DHT22;4597;48.730;9.114;2022-12-18T12:08:31;-1.90;99.90
9125;DHT22;4597;48.730;9.114;2022-12-18T12:11:15;-1.90;99.90
9125;DHT22;4597;48.730;9.114;2022-12-18T12:16:33;-1.80;99.90
9125;DHT22;4597;48.730;9.114;2022-12-18T12:21:40;-1.70;99.90
9125;DHT22;4597;48.730;9.114;2022-12-18T12:30:20;-1.50;99.90
9125;DHT22;4597;48.730;9.114;2022-12-18T12:38:25;-1.40;99.90
9125;DHT22;4597;48.730;9.114;2022-12-18T12:41:17;-1.40;99.90
9125;DHT22;4597;48.730;9.114;2022-12-18T12:44:02;-1.30;99.90
9125;DHT22;4597;48.730;9.114;2022-12-18T12:46:32;-1.20;99.90
9125;DHT22;4597;48.730;9.114;2022-12-18T12:49:02;-1.20;99.90
9125;DHT22;4597;48.730;9.114;2022-12-18T12:51:36;-1.10;99.90
9125;DHT22;4597;48.730;9.114;2022-12-18T12:54:11;-1.10;99.90
9125;DHT22;4597;48.730;9.114;2022-12-18T12:56:47;-1.10;99.90
9125;DHT22;4597;48.730;9.114;2022-12-18T12:59:35;-1.00;99.90
9125;DHT22;4597;48.730;9.114;2022-12-18T13:02:22;-1.00;99.90
9125;DHT22;4597;48.730;9.114;2022-12-18T13:07:51;-0.90;99.90
9125;DHT22;4597;48.730;9.114;2022-12-18T13:12:53;-0.80;99.90
9125;DHT22;4597;48.730;9.114;2022-12-18T13:15:32;-0.80;99.90
9125;DHT22;4597;48.730;9.114;2022-12-18T13:20:42;-0.70;99.90
9125;DHT22;4597;48.730;9.114;2022-12-18T13:30:59;-0.70;99.90
9125;DHT22;4597;48.730;9.114;2022-12-18T13:38:38;-0.70;99.90
9125;DHT22;4597;48.730;9.114;2022-12-18T13:43:42;-0.80;99.90
9125;DHT22;4597;48.730;9.114;2022-12-18T13:46:19;-0.70;99.90
9125;DHT22;4597;48.730;9.114;2022-12-18T13:51:25;-0.70;99.90
9125;DHT22;4597;48.730;9.114;2022-12-18T13:56:24;-0.70;99.90
9125;DHT22;4597;48.730;9.114;2022-12-18T13:59:13;-0.70;99.90
9125;DHT22;4597;48.730;9.114;2022-12-18T14:01:48;-0.60;99.90
9125;DHT22;4597;48.730;9.114;2022-12-18T14:04:34;-0.60;99.90
9125;DHT22;4597;48.730;9.114;2022-12-18T14:07:06;-0.60;99.90
9125;DHT22;4597;48.730;9.114;2022-12-18T14:09:39;-0.70;99.90
9125;DHT22;4597;48.730;9.114;2022-12-18T14:12:06;-0.60;99.90
9125;DHT22;4597;48.730;9.114;2022-12-18T14:14:52;-0.70;99.90
9125;DHT22;4597;48.730;9.114;2022-12-18T14:17:18;-0.70;99.90
9125;DHT22;4597;48.730;9.114;2022-12-18T14:19:50;-0.80;99.90
9125;DHT22;4597;48.730;9.114;2022-12-18T14:22:22;-0.80;99.90
9125;DHT22;4597;48.730;9.114;2022-12-18T14:28:24;-0.80;99.90
9125;DHT22;4597;48.730;9.114;2022-12-18T14:30:33;-0.90;99.90
9125;DHT22;4597;48.730;9.114;2022-12-18T14:33:15;-0.90;99.90
9125;DHT22;4597;48.730;9.114;2022-12-18T14:35:51;-0.90;99.90
9125;DHT22;4597;48.730;9.114;2022-12-18T14:38:19;-0.90;99.90
9125;DHT22;4597;48.730;9.114;2022-12-18T14:40:46;-1.00;99.90
9125;DHT22;4597;48.730;9.114;2022-12-18T14:43:12;-1.00;99.90
9125;DHT22;4597;48.730;9.114;2022-12-18T14:45:40;-1.10;99.90
9125;DHT22;4597;48.730;9.114;2022-12-18T14:48:08;-1.10;99.90
9125;DHT22;4597;48.730;9.114;2022-12-18T14:50:34;-1.20;99.90
9125;DHT22;4597;48.730;9.114;2022-12-18T14:53:00;-1.20;99.90
9125;DHT22;4597;48.730;9.114;2022-12-18T14:55:25;-1.20;99.90
9125;DHT22;4597;48.730;9.114;2022-12-18T14:57:53;-1.30;99.90
9125;DHT22;4597;48.730;9.114;2022-12-18T15:00:22;-1.30;99.90
9125;DHT22;4597;48.730;9.114;2022-12-18T15:02:52;-1.30;99.90
9125;DHT22;4597;48.730;9.114;2022-12-18T15:05:29;-1.40;99.90
9125;DHT22;4597;48.730;9.114;2022-12-18T15:07:58;-1.40;99.90
9125;DHT22;4597;48.730;9.114;2022-12-18T15:20:54;-1.60;99.90
9125;DHT22;4597;48.730;9.114;2022-12-18T15:23:45;-1.80;99.90
9125;DHT22;4597;48.730;9.114;2022-12-18T15:26:13;-1.80;99.90
9125;DHT22;4597;48.730;9.114;2022-12-18T15:28:59;-1.80;99.90
9125;DHT22;4597;48.730;9.114;2022-12-18T15:31:29;-1.80;99.90
9125;DHT22;4597;48.730;9.114;2022-12-18T15:36:23;-1.90;99.90
9125;DHT22;4597;48.730;9.114;2022-12-18T15:38:50;-1.90;99.90
9125;DHT22;4597;48.730;9.114;2022-12-18T15:41:17;-2.00;99.90
9125;DHT22;4597;48.730;9.114;2022-12-18T15:43:44;-2.00;99.90
9125;DHT22;4597;48.730;9.114;2022-12-18T15:46:18;-2.00;99.90
9125;DHT22;4597;48.730;9.114;2022-12-18T15:48:52;-2.10;99.90
9125;DHT22;4597;48.730;9.114;2022-12-18T15:51:33;-2.10;99.90
9125;DHT22;4597;48.730;9.114;2022-12-18T15:54:01;-2.10;99.90
9125;DHT22;4597;48.730;9.114;2022-12-18T15:56:28;-2.10;99.90
9125;DHT22;4597;48.730;9.114;2022-12-18T15:59:15;-2.10;99.90
9125;DHT22;4597;48.730;9.114;2022-12-18T16:01:42;-2.10;99.90
9125;DHT22;4597;48.730;9.114;2022-12-18T16:04:13;-2.20;99.90
9125;DHT22;4597;48.730;9.114;2022-12-18T16:06:40;-2.20;99.90
9125;DHT22;4597;48.730;9.114;2022-12-18T16:09:06;-2.20;99.90
9125;DHT22;4597;48.730;9.114;2022-12-18T16:11:33;-2.20;99.90
9125;DHT22;4597;48.730;9.114;2022-12-18T16:14:19;-2.30;99.90
9125;DHT22;4597;48.730;9.114;2022-12-18T16:16:46;-2.20;99.90
9125;DHT22;4597;48.730;9.114;2022-12-18T16:19:12;-2.30;99.90
9125;DHT22;4597;48.730;9.114;2022-12-18T16:21:38;-2.30;99.90
9125;DHT22;4597;48.730;9.114;2022-12-18T16:24:03;-2.30;99.90
9125;DHT22;4597;48.730;9.114;2022-12-18T16:26:32;-2.30;99.90
9125;DHT22;4597;48.730;9.114;2022-12-18T16:28:58;-2.30;99.90
9125;DHT22;4597;48.730;9.114;2022-12-18T16:31:23;-2.30;99.90
9125;DHT22;4597;48.730;9.114;2022-12-18T16:33:49;-2.30;99.90
9125;DHT22;4597;48.730;9.114;2022-12-18T16:36:14;-2.30;99.90
9125;DHT22;4597;48.730;9.114;2022-12-18T16:38:40;-2.30;99.90
9125;DHT22;4597;48.730;9.114;2022-12-18T16:41:18;-2.20;99.90
9125;DHT22;4597;48.730;9.114;2022-12-18T16:43:56;-2.20;99.90
9125;DHT22;4597;48.730;9.114;2022-12-18T16:46:22;-2.20;99.90
9125;DHT22;4597;48.730;9.114;2022-12-18T16:48:48;-2.20;99.90
9125;DHT22;4597;48.730;9.114;2022-12-18T16:51:13;-2.20;99.90
9125;DHT22;4597;48.730;9.114;2022-12-18T16:53:39;-2.30;99.90
9125;DHT22;4597;48.730;9.114;2022-12-18T16:56:04;-2.20;99.90
9125;DHT22;4597;48.730;9.114;2022-12-18T16:58:30;-2.20;99.90
9125;DHT22;4597;48.730;9.114;2022-12-18T17:00:56;-2.10;99.90
9125;DHT22;4597;48.730;9.114;2022-12-18T17:03:22;-2.10;99.90
9125;DHT22;4597;48.730;9.114;2022-12-18T17:05:47;-2.10;99.90
9125;DHT22;4597;48.730;9.114;2022-12-18T17:08:13;-2.10;99.90
9125;DHT22;4597;48.730;9.114;2022-12-18T17:10:38;-2.00;99.90
9125;DHT22;4597;48.730;9.114;2022-12-18T17:13:04;-2.00;99.90
9125;DHT22;4597;48.730;9.114;2022-12-18T17:15:29;-2.00;99.90
9125;DHT22;4597;48.730;9.114;2022-12-18T17:17:55;-2.00;99.90
9125;DHT22;4597;48.730;9.114;2022-12-18T17:20:21;-2.00;99.90
9125;DHT22;4597;48.730;9.114;2022-12-18T17:22:46;-2.00;99.90
9125;DHT22;4597;48.730;9.114;2022-12-18T17:25:12;-2.00;99.90
9125;DHT22;4597;48.730;9.114;2022-12-18T17:27:37;-2.00;99.90
9125;DHT22;4597;48.730;9.114;2022-12-18T17:30:03;-2.00;99.90
9125;DHT22;4597;48.730;9.114;2022-12-18T17:32:29;-2.00;99.90
9125;DHT22;4597;48.730;9.114;2022-12-18T17:34:54;-1.90;99.90
9125;DHT22;4597;48.730;9.114;2022-12-18T17:37:20;-1.90;99.90
9125;DHT22;4597;48.730;9.114;2022-12-18T17:39:45;-1.90;99.90
9125;DHT22;4597;48.730;9.114;2022-12-18T17:42:11;-1.90;99.90
9125;DHT22;4597;48.730;9.114;2022-12-18T17:44:38;-1.90;99.90
9125;DHT22;4597;48.730;9.114;2022-12-18T17:47:04;-1.90;99.90
9125;DHT22;4597;48.730;9.114;2022-12-18T17:49:30;-1.90;99.90
9125;DHT22;4597;48.730;9.114;2022-12-18T17:51:56;-2.00;99.90
9125;DHT22;4597;48.730;9.114;2022-12-18T17:54:21;-2.00;99.90
9125;DHT22;4597;48.730;9.114;2022-12-18T17:56:47;-2.00;99.90
9125;DHT22;4597;48.730;9.114;2022-12-18T17:59:12;-1.90;99.90
9125;DHT22;4597;48.730;9.114;2022-12-18T18:01:38;-1.90;99.90
9125;DHT22;4597;48.730;9.114;2022-12-18T18:04:04;-2.00;99.90